Satellite Actuals Today Synoptics Week ahead

Weather information and forecast links for Shobdon, the Midlands, Western England and Wales

Today:

BBC Leominster local forecast and regional video.

Met Office general forecast

Met Office F214 and F215 charts (as displayed in the Aero Club each day) You have to register to use this site, but it is free.

Links to pretty much everything you need Rackham's home.

Satellite Met Office or Sat24 - visual for lower cloud, infrared for upper cloud.

XCWeather Wind map and local forecast

Will it Rain Today?

TAFs and METARs EGBB:Birmingham EGFF:Cardiff EGVN:Brize Norton

Local forecasts Met Office  MetCheck  Weatherweb

RASP Ridge wind forecast

Dewpoint+Temperature tephigram UK Soundings or Weather online


Other Club sites:Dunstable  Lasham  Nympsfield Long Mynd

Shobdon Hangar web-cam facing Southwest

Latest TAFs

Birmingham

2019/07/19 18:09
TAF TAF EGBB 191707Z 1918/2018 20010KT 9999 BKN018 
      TEMPO 1918/1924 7000 SHRA BKN008 PROB30 
      TEMPO 1918/1922 24015G25KT 4000 +SHRA TSGS PROB30 
      TEMPO 2000/2012 7000 SHRA BKN010 
      BECMG 2008/2011 26015KT

Brize Norton

2019/07/20 03:54
TAF TAF EGVN 200144Z 2003/2103 21008KT 9999 BKN012 PROB40 
      TEMPO 2003/2008 BKN015 PROB40 
      TEMPO 2003/2005 4000 RA 
      BECMG 2008/2011 SCT030 PROB30 
      TEMPO 2010/2016 7000 SHRA BKN024CB

Cardiff

2019/07/20 01:59
TAF 
      AMD EGFF 200154Z 2001/2024 20003KT 9999 BKN020 
      TEMPO 2001/2003 1200 +SHRA BKN002 PROB30 
      TEMPO 2003/2012 6000 SHRA BKN014 
      BECMG 2006/2009 27012KT

Select station

2019/07/19 21:06
TAF 
      AMD EGCC 192101Z 1921/2024 22005KT 9999 SCT020 
      TEMPO 1921/2003 8000 -SHRA PROB30 
      TEMPO 2003/2008 7000 -RA 
      BECMG 2006/2009 28010KT 
      TEMPO 2008/2013 7000 -RA BKN014 PROB30 
      TEMPO 2008/2016 28015G25KT 
      BECMG 2020/2023 VRB03KT

Decode?  - Copy the TAF (from the station code) and paste it into the METARs/TAFs box here.

Soaring data for today

Data provided by RASP

Today's Forecast for Shobdon (52.24207,-2.87443)
Stars rating
Wind direction
Wind speed
Cumrasp-uk.ukulus potential
Surface Sunshine
Surface Temperature
MSL Pressuree
Rainfall